aviador You're here:

UKDR Decoded Metar

KRIVYY RIH in UKRAINE
Report Time2018-05-23 20:30:00
UTC Time2018-05-23 20:42:50
Flight Rules vfr VFR
Wind040° at 6 kt
W.Decomp.*RWY 36: 4.9 kt HW 3.5 kt RCW
W.Rank040° ranks 1
Current wind is below 040° avg. (7.3)
Visibility9999 m
Phenomena:N/A
Clouds:N/A
Expected CloudBase > 1,600 ft AGL from Temp-Dew spread
CeilingNone
Temp19°C (ISA +5)
Dew Point15°C (78% RH)
AAT18.5°C
QNH1018 hPa
Density Alt1,030 ft
Elevation407 ft
Report Wrong Elevation
Raw Report
UKDR 232030Z 04003MPS 360V070 CAVOK 19/15 Q1018 R36/19//60
NOSIG=

Extra information for UKDR:More info

Metar Taf Metar & Taf Last 4 Metars F.Rules Stats Wind Profile Meteogram Temp Stats Airport Information Weather charts Add Link Nearby VenuesMetar ALERT Operation Metar Decoded Social comments